sensor_id;sensor_type;location;lat;lon;timestamp;P1;durP1;ratioP1;P2;durP2;ratioP2
56255;SDS011;57229;51.432;-2.598;2024-01-30T00:01:50;6.25;;;4.53;;
56255;SDS011;57229;51.432;-2.598;2024-01-30T00:04:16;7.88;;;4.63;;
56255;SDS011;57229;51.432;-2.598;2024-01-30T00:06:42;6.57;;;4.60;;
56255;SDS011;57229;51.432;-2.598;2024-01-30T00:09:08;5.45;;;4.63;;
56255;SDS011;57229;51.432;-2.598;2024-01-30T00:11:35;8.82;;;4.97;;
56255;SDS011;57229;51.432;-2.598;2024-01-30T00:14:01;5.88;;;4.53;;
56255;SDS011;57229;51.432;-2.598;2024-01-30T00:16:26;5.43;;;4.78;;
56255;SDS011;57229;51.432;-2.598;2024-01-30T00:18:52;6.35;;;4.70;;
56255;SDS011;57229;51.432;-2.598;2024-01-30T00:21:19;5.22;;;4.65;;
56255;SDS011;57229;51.432;-2.598;2024-01-30T00:23:45;7.85;;;5.18;;
56255;SDS011;57229;51.432;-2.598;2024-01-30T00:26:11;6.57;;;5.07;;
56255;SDS011;57229;51.432;-2.598;2024-01-30T00:28:37;6.80;;;5.10;;
56255;SDS011;57229;51.432;-2.598;2024-01-30T00:31:03;5.30;;;4.82;;
56255;SDS011;57229;51.432;-2.598;2024-01-30T00:33:29;5.03;;;4.63;;
56255;SDS011;57229;51.432;-2.598;2024-01-30T00:35:54;7.05;;;4.78;;
56255;SDS011;57229;51.432;-2.598;2024-01-30T00:38:20;5.68;;;4.72;;
56255;SDS011;57229;51.432;-2.598;2024-01-30T00:40:46;8.93;;;5.03;;
56255;SDS011;57229;51.432;-2.598;2024-01-30T00:43:11;7.90;;;4.47;;
56255;SDS011;57229;51.432;-2.598;2024-01-30T00:45:37;5.20;;;4.72;;
56255;SDS011;57229;51.432;-2.598;2024-01-30T00:48:02;4.78;;;4.38;;
56255;SDS011;57229;51.432;-2.598;2024-01-30T00:50:29;4.93;;;4.50;;
56255;SDS011;57229;51.432;-2.598;2024-01-30T00:52:54;4.47;;;4.18;;
56255;SDS011;57229;51.432;-2.598;2024-01-30T00:55:20;4.57;;;4.28;;
56255;SDS011;57229;51.432;-2.598;2024-01-30T00:57:46;4.60;;;4.13;;
56255;SDS011;57229;51.432;-2.598;2024-01-30T01:00:12;4.38;;;3.97;;
56255;SDS011;57229;51.432;-2.598;2024-01-30T01:02:40;5.50;;;4.45;;
56255;SDS011;57229;51.432;-2.598;2024-01-30T01:05:06;5.43;;;4.78;;
56255;SDS011;57229;51.432;-2.598;2024-01-30T01:07:32;6.55;;;4.78;;
56255;SDS011;57229;51.432;-2.598;2024-01-30T01:09:57;5.10;;;4.32;;
56255;SDS011;57229;51.432;-2.598;2024-01-30T01:12:23;7.22;;;4.80;;
56255;SDS011;57229;51.432;-2.598;2024-01-30T01:14:48;6.00;;;4.80;;
56255;SDS011;57229;51.432;-2.598;2024-01-30T01:17:14;12.05;;;5.72;;
56255;SDS011;57229;51.432;-2.598;2024-01-30T01:19:40;11.60;;;6.28;;
56255;SDS011;57229;51.432;-2.598;2024-01-30T01:22:05;17.70;;;6.85;;
56255;SDS011;57229;51.432;-2.598;2024-01-30T01:24:31;11.73;;;8.10;;
56255;SDS011;57229;51.432;-2.598;2024-01-30T01:26:58;12.95;;;8.70;;
56255;SDS011;57229;51.432;-2.598;2024-01-30T01:29:23;14.82;;;8.13;;
56255;SDS011;57229;51.432;-2.598;2024-01-30T01:31:54;16.30;;;8.27;;
56255;SDS011;57229;51.432;-2.598;2024-01-30T01:34:20;9.18;;;7.00;;
56255;SDS011;57229;51.432;-2.598;2024-01-30T01:36:46;19.02;;;8.18;;
56255;SDS011;57229;51.432;-2.598;2024-01-30T01:39:12;11.98;;;6.50;;
56255;SDS011;57229;51.432;-2.598;2024-01-30T01:41:37;12.48;;;6.30;;
56255;SDS011;57229;51.432;-2.598;2024-01-30T01:44:03;7.20;;;6.15;;
56255;SDS011;57229;51.432;-2.598;2024-01-30T01:46:30;12.88;;;6.68;;
56255;SDS011;57229;51.432;-2.598;2024-01-30T01:48:58;13.48;;;6.07;;
56255;SDS011;57229;51.432;-2.598;2024-01-30T01:51:25;7.63;;;6.05;;
56255;SDS011;57229;51.432;-2.598;2024-01-30T01:53:53;7.28;;;6.28;;
56255;SDS011;57229;51.432;-2.598;2024-01-30T01:56:20;7.72;;;6.20;;
56255;SDS011;57229;51.432;-2.598;2024-01-30T01:58:47;7.38;;;5.97;;
56255;SDS011;57229;51.432;-2.598;2024-01-30T02:01:14;6.80;;;6.15;;
56255;SDS011;57229;51.432;-2.598;2024-01-30T02:03:44;8.43;;;5.68;;
56255;SDS011;57229;51.432;-2.598;2024-01-30T02:06:10;6.43;;;5.82;;
56255;SDS011;57229;51.432;-2.598;2024-01-30T02:08:37;6.68;;;5.82;;
56255;SDS011;57229;51.432;-2.598;2024-01-30T02:11:03;6.03;;;5.53;;
56255;SDS011;57229;51.432;-2.598;2024-01-30T02:13:30;11.57;;;6.05;;
56255;SDS011;57229;51.432;-2.598;2024-01-30T02:15:55;6.82;;;5.85;;
56255;SDS011;57229;51.432;-2.598;2024-01-30T02:18:21;7.15;;;6.07;;
56255;SDS011;57229;51.432;-2.598;2024-01-30T02:20:47;6.25;;;5.50;;
56255;SDS011;57229;51.432;-2.598;2024-01-30T02:23:14;6.53;;;5.32;;
56255;SDS011;57229;51.432;-2.598;2024-01-30T02:25:41;5.70;;;5.20;;
56255;SDS011;57229;51.432;-2.598;2024-01-30T02:28:10;5.47;;;5.00;;
56255;SDS011;57229;51.432;-2.598;2024-01-30T02:30:37;5.15;;;4.60;;
56255;SDS011;57229;51.432;-2.598;2024-01-30T02:33:02;6.20;;;5.10;;
56255;SDS011;57229;51.432;-2.598;2024-01-30T02:35:28;5.32;;;4.63;;
56255;SDS011;57229;51.432;-2.598;2024-01-30T02:37:54;6.07;;;4.75;;
56255;SDS011;57229;51.432;-2.598;2024-01-30T02:40:19;5.10;;;4.70;;
56255;SDS011;57229;51.432;-2.598;2024-01-30T02:42:45;4.60;;;4.25;;
56255;SDS011;57229;51.432;-2.598;2024-01-30T02:45:11;4.32;;;4.03;;
56255;SDS011;57229;51.432;-2.598;2024-01-30T02:47:37;7.07;;;4.40;;
56255;SDS011;57229;51.432;-2.598;2024-01-30T02:50:03;4.30;;;4.10;;
56255;SDS011;57229;51.432;-2.598;2024-01-30T02:52:29;5.32;;;4.40;;
56255;SDS011;57229;51.432;-2.598;2024-01-30T02:54:55;4.95;;;4.50;;
56255;SDS011;57229;51.432;-2.598;2024-01-30T02:57:20;4.95;;;4.55;;
56255;SDS011;57229;51.432;-2.598;2024-01-30T02:59:46;4.93;;;4.20;;
56255;SDS011;57229;51.432;-2.598;2024-01-30T03:02:12;4.72;;;4.07;;
56255;SDS011;57229;51.432;-2.598;2024-01-30T03:04:37;5.90;;;4.15;;
56255;SDS011;57229;51.432;-2.598;2024-01-30T03:07:06;4.65;;;4.10;;
56255;SDS011;57229;51.432;-2.598;2024-01-30T03:09:32;4.63;;;4.10;;
56255;SDS011;57229;51.432;-2.598;2024-01-30T03:11:58;4.82;;;4.43;;
56255;SDS011;57229;51.432;-2.598;2024-01-30T03:14:23;4.70;;;4.30;;
56255;SDS011;57229;51.432;-2.598;2024-01-30T03:16:49;4.72;;;4.30;;
56255;SDS011;57229;51.432;-2.598;2024-01-30T03:19:15;5.28;;;4.53;;
56255;SDS011;57229;51.432;-2.598;2024-01-30T03:21:40;5.00;;;4.50;;
56255;SDS011;57229;51.432;-2.598;2024-01-30T03:24:06;4.70;;;4.40;;
56255;SDS011;57229;51.432;-2.598;2024-01-30T03:26:32;4.93;;;4.50;;
56255;SDS011;57229;51.432;-2.598;2024-01-30T03:28:57;4.22;;;3.92;;
56255;SDS011;57229;51.432;-2.598;2024-01-30T03:31:23;4.30;;;4.00;;
56255;SDS011;57229;51.432;-2.598;2024-01-30T03:33:49;5.43;;;3.92;;
56255;SDS011;57229;51.432;-2.598;2024-01-30T03:36:15;4.45;;;4.15;;
56255;SDS011;57229;51.432;-2.598;2024-01-30T03:38:41;4.20;;;3.90;;
56255;SDS011;57229;51.432;-2.598;2024-01-30T03:41:07;4.03;;;3.80;;
56255;SDS011;57229;51.432;-2.598;2024-01-30T03:43:34;4.10;;;3.70;;
56255;SDS011;57229;51.432;-2.598;2024-01-30T03:46:00;4.93;;;3.83;;
56255;SDS011;57229;51.432;-2.598;2024-01-30T03:48:27;4.10;;;3.80;;
56255;SDS011;57229;51.432;-2.598;2024-01-30T03:50:52;4.20;;;3.90;;
56255;SDS011;57229;51.432;-2.598;2024-01-30T03:53:18;4.38;;;4.00;;
56255;SDS011;57229;51.432;-2.598;2024-01-30T03:55:44;4.72;;;4.03;;
56255;SDS011;57229;51.432;-2.598;2024-01-30T03:58:09;5.05;;;4.55;;
56255;SDS011;57229;51.432;-2.598;2024-01-30T04:00:35;5.00;;;4.60;;
56255;SDS011;57229;51.432;-2.598;2024-01-30T04:03:00;7.07;;;4.53;;
56255;SDS011;57229;51.432;-2.598;2024-01-30T04:05:26;5.45;;;4.93;;
56255;SDS011;57229;51.432;-2.598;2024-01-30T04:07:51;6.32;;;4.68;;
56255;SDS011;57229;51.432;-2.598;2024-01-30T04:10:17;4.85;;;4.45;;
56255;SDS011;57229;51.432;-2.598;2024-01-30T04:12:43;7.28;;;4.47;;
56255;SDS011;57229;51.432;-2.598;2024-01-30T04:15:08;5.22;;;4.40;;
56255;SDS011;57229;51.432;-2.598;2024-01-30T04:17:34;6.10;;;4.70;;
56255;SDS011;57229;51.432;-2.598;2024-01-30T04:20:00;7.60;;;4.10;;
56255;SDS011;57229;51.432;-2.598;2024-01-30T04:22:25;4.53;;;4.20;;
56255;SDS011;57229;51.432;-2.598;2024-01-30T04:24:51;4.32;;;3.92;;
56255;SDS011;57229;51.432;-2.598;2024-01-30T04:27:16;6.57;;;4.25;;
56255;SDS011;57229;51.432;-2.598;2024-01-30T04:29:42;8.65;;;4.60;;
56255;SDS011;57229;51.432;-2.598;2024-01-30T04:32:08;4.95;;;4.45;;
56255;SDS011;57229;51.432;-2.598;2024-01-30T04:34:34;5.65;;;4.70;;
56255;SDS011;57229;51.432;-2.598;2024-01-30T04:37:01;5.47;;;4.00;;
56255;SDS011;57229;51.432;-2.598;2024-01-30T04:39:27;4.80;;;4.50;;
56255;SDS011;57229;51.432;-2.598;2024-01-30T04:41:52;5.28;;;4.70;;
56255;SDS011;57229;51.432;-2.598;2024-01-30T04:44:18;6.95;;;4.40;;
56255;SDS011;57229;51.432;-2.598;2024-01-30T04:46:44;7.28;;;4.90;;
56255;SDS011;57229;51.432;-2.598;2024-01-30T04:49:09;8.27;;;5.00;;
56255;SDS011;57229;51.432;-2.598;2024-01-30T04:51:35;6.95;;;5.20;;
56255;SDS011;57229;51.432;-2.598;2024-01-30T04:54:01;6.50;;;4.88;;
56255;SDS011;57229;51.432;-2.598;2024-01-30T04:56:26;5.53;;;5.00;;
56255;SDS011;57229;51.432;-2.598;2024-01-30T04:58:52;5.78;;;5.28;;
56255;SDS011;57229;51.432;-2.598;2024-01-30T05:01:18;5.38;;;4.97;;
56255;SDS011;57229;51.432;-2.598;2024-01-30T05:03:43;7.38;;;5.57;;
56255;SDS011;57229;51.432;-2.598;2024-01-30T05:06:09;7.88;;;5.10;;
56255;SDS011;57229;51.432;-2.598;2024-01-30T05:08:35;6.13;;;5.53;;
56255;SDS011;57229;51.432;-2.598;2024-01-30T05:11:02;8.65;;;5.07;;
56255;SDS011;57229;51.432;-2.598;2024-01-30T05:13:31;11.95;;;5.00;;
56255;SDS011;57229;51.432;-2.598;2024-01-30T05:15:57;6.57;;;5.32;;
56255;SDS011;57229;51.432;-2.598;2024-01-30T05:18:22;7.47;;;4.88;;
56255;SDS011;57229;51.432;-2.598;2024-01-30T05:20:49;9.90;;;5.07;;
56255;SDS011;57229;51.432;-2.598;2024-01-30T05:23:15;9.13;;;5.05;;
56255;SDS011;57229;51.432;-2.598;2024-01-30T05:25:41;12.23;;;5.50;;
56255;SDS011;57229;51.432;-2.598;2024-01-30T05:28:07;8.90;;;5.10;;
56255;SDS011;57229;51.432;-2.598;2024-01-30T05:30:32;7.57;;;5.00;;
56255;SDS011;57229;51.432;-2.598;2024-01-30T05:32:58;8.00;;;5.38;;
56255;SDS011;57229;51.432;-2.598;2024-01-30T05:35:23;7.45;;;5.10;;
56255;SDS011;57229;51.432;-2.598;2024-01-30T05:37:49;5.78;;;5.05;;
56255;SDS011;57229;51.432;-2.598;2024-01-30T05:40:15;7.72;;;5.35;;
56255;SDS011;57229;51.432;-2.598;2024-01-30T05:42:41;7.68;;;5.45;;
56255;SDS011;57229;51.432;-2.598;2024-01-30T05:45:07;12.32;;;6.00;;
56255;SDS011;57229;51.432;-2.598;2024-01-30T05:47:33;11.90;;;5.63;;
56255;SDS011;57229;51.432;-2.598;2024-01-30T05:50:02;8.60;;;5.38;;
56255;SDS011;57229;51.432;-2.598;2024-01-30T05:52:28;14.00;;;5.47;;
56255;SDS011;57229;51.432;-2.598;2024-01-30T05:54:53;12.32;;;5.57;;
56255;SDS011;57229;51.432;-2.598;2024-01-30T05:57:19;9.40;;;5.70;;
56255;SDS011;57229;51.432;-2.598;2024-01-30T05:59:45;11.50;;;5.97;;
56255;SDS011;57229;51.432;-2.598;2024-01-30T06:02:12;14.63;;;6.07;;
56255;SDS011;57229;51.432;-2.598;2024-01-30T06:04:38;8.27;;;6.03;;
56255;SDS011;57229;51.432;-2.598;2024-01-30T06:07:04;13.98;;;7.00;;
56255;SDS011;57229;51.432;-2.598;2024-01-30T06:09:31;12.00;;;7.10;;
56255;SDS011;57229;51.432;-2.598;2024-01-30T06:11:57;14.57;;;7.43;;
56255;SDS011;57229;51.432;-2.598;2024-01-30T06:14:23;21.70;;;8.95;;
56255;SDS011;57229;51.432;-2.598;2024-01-30T06:16:48;14.40;;;7.95;;
56255;SDS011;57229;51.432;-2.598;2024-01-30T06:19:14;17.70;;;9.40;;
56255;SDS011;57229;51.432;-2.598;2024-01-30T06:21:40;21.52;;;8.43;;
56255;SDS011;57229;51.432;-2.598;2024-01-30T06:24:06;17.83;;;8.95;;
56255;SDS011;57229;51.432;-2.598;2024-01-30T06:26:31;18.27;;;8.48;;
56255;SDS011;57229;51.432;-2.598;2024-01-30T06:28:57;16.75;;;9.38;;
56255;SDS011;57229;51.432;-2.598;2024-01-30T06:31:23;18.27;;;9.13;;
56255;SDS011;57229;51.432;-2.598;2024-01-30T06:33:49;23.73;;;9.55;;
56255;SDS011;57229;51.432;-2.598;2024-01-30T06:36:14;17.23;;;8.90;;
56255;SDS011;57229;51.432;-2.598;2024-01-30T06:38:40;25.98;;;8.88;;
56255;SDS011;57229;51.432;-2.598;2024-01-30T06:41:06;25.60;;;9.50;;
56255;SDS011;57229;51.432;-2.598;2024-01-30T06:43:32;27.30;;;9.63;;
56255;SDS011;57229;51.432;-2.598;2024-01-30T06:45:58;28.52;;;10.48;;
56255;SDS011;57229;51.432;-2.598;2024-01-30T06:48:24;22.92;;;10.98;;
56255;SDS011;57229;51.432;-2.598;2024-01-30T06:50:50;27.85;;;10.02;;
56255;SDS011;57229;51.432;-2.598;2024-01-30T06:53:18;22.98;;;10.88;;
56255;SDS011;57229;51.432;-2.598;2024-01-30T06:55:44;20.23;;;9.80;;
56255;SDS011;57229;51.432;-2.598;2024-01-30T06:58:10;34.70;;;11.27;;
56255;SDS011;57229;51.432;-2.598;2024-01-30T07:00:35;25.92;;;10.68;;
56255;SDS011;57229;51.432;-2.598;2024-01-30T07:03:01;24.40;;;9.75;;
56255;SDS011;57229;51.432;-2.598;2024-01-30T07:05:27;31.08;;;10.25;;
56255;SDS011;57229;51.432;-2.598;2024-01-30T07:07:52;23.80;;;9.35;;
56255;SDS011;57229;51.432;-2.598;2024-01-30T07:10:18;24.58;;;9.73;;
56255;SDS011;57229;51.432;-2.598;2024-01-30T07:12:44;23.05;;;11.40;;
56255;SDS011;57229;51.432;-2.598;2024-01-30T07:15:09;24.85;;;10.65;;
56255;SDS011;57229;51.432;-2.598;2024-01-30T07:17:35;23.65;;;9.85;;
56255;SDS011;57229;51.432;-2.598;2024-01-30T07:20:01;28.38;;;9.95;;
56255;SDS011;57229;51.432;-2.598;2024-01-30T07:22:30;25.08;;;9.93;;
56255;SDS011;57229;51.432;-2.598;2024-01-30T07:24:56;20.67;;;8.50;;
56255;SDS011;57229;51.432;-2.598;2024-01-30T07:27:22;23.85;;;10.20;;
56255;SDS011;57229;51.432;-2.598;2024-01-30T07:29:47;23.23;;;8.93;;
56255;SDS011;57229;51.432;-2.598;2024-01-30T07:32:13;22.83;;;10.23;;
56255;SDS011;57229;51.432;-2.598;2024-01-30T07:34:39;21.23;;;8.48;;
56255;SDS011;57229;51.432;-2.598;2024-01-30T07:37:04;22.10;;;10.18;;
56255;SDS011;57229;51.432;-2.598;2024-01-30T07:39:33;22.63;;;8.95;;
56255;SDS011;57229;51.432;-2.598;2024-01-30T07:41:59;25.00;;;9.85;;
56255;SDS011;57229;51.432;-2.598;2024-01-30T07:44:24;20.77;;;8.68;;
56255;SDS011;57229;51.432;-2.598;2024-01-30T07:46:50;19.40;;;9.05;;
56255;SDS011;57229;51.432;-2.598;2024-01-30T07:49:15;18.45;;;8.75;;
56255;SDS011;57229;51.432;-2.598;2024-01-30T07:51:41;22.75;;;9.40;;
56255;SDS011;57229;51.432;-2.598;2024-01-30T07:54:08;24.75;;;9.40;;
56255;SDS011;57229;51.432;-2.598;2024-01-30T07:56:33;18.38;;;9.10;;
56255;SDS011;57229;51.432;-2.598;2024-01-30T07:58:59;22.35;;;8.88;;
56255;SDS011;57229;51.432;-2.598;2024-01-30T08:01:24;24.45;;;9.70;;
56255;SDS011;57229;51.432;-2.598;2024-01-30T08:03:50;20.50;;;8.95;;
56255;SDS011;57229;51.432;-2.598;2024-01-30T08:06:15;18.13;;;9.00;;
56255;SDS011;57229;51.432;-2.598;2024-01-30T08:08:41;20.67;;;9.55;;
56255;SDS011;57229;51.432;-2.598;2024-01-30T08:11:07;22.02;;;9.07;;
56255;SDS011;57229;51.432;-2.598;2024-01-30T08:13:33;24.63;;;9.55;;
56255;SDS011;57229;51.432;-2.598;2024-01-30T08:15:58;18.63;;;8.45;;
56255;SDS011;57229;51.432;-2.598;2024-01-30T08:18:24;18.55;;;8.75;;
56255;SDS011;57229;51.432;-2.598;2024-01-30T08:20:49;18.15;;;8.07;;
56255;SDS011;57229;51.432;-2.598;2024-01-30T08:23:15;15.88;;;7.68;;
56255;SDS011;57229;51.432;-2.598;2024-01-30T08:25:41;20.13;;;8.70;;
56255;SDS011;57229;51.432;-2.598;2024-01-30T08:28:06;15.75;;;8.30;;
56255;SDS011;57229;51.432;-2.598;2024-01-30T08:30:33;20.45;;;8.80;;
56255;SDS011;57229;51.432;-2.598;2024-01-30T08:32:58;26.35;;;8.32;;
56255;SDS011;57229;51.432;-2.598;2024-01-30T08:35:24;20.33;;;8.57;;
56255;SDS011;57229;51.432;-2.598;2024-01-30T08:37:50;20.85;;;9.05;;
56255;SDS011;57229;51.432;-2.598;2024-01-30T08:40:15;20.27;;;8.02;;
56255;SDS011;57229;51.432;-2.598;2024-01-30T08:42:41;26.45;;;9.18;;
56255;SDS011;57229;51.432;-2.598;2024-01-30T08:45:06;18.48;;;8.63;;
56255;SDS011;57229;51.432;-2.598;2024-01-30T08:47:33;21.38;;;8.63;;
56255;SDS011;57229;51.432;-2.598;2024-01-30T08:49:58;22.77;;;9.18;;
56255;SDS011;57229;51.432;-2.598;2024-01-30T08:52:24;19.88;;;8.38;;
56255;SDS011;57229;51.432;-2.598;2024-01-30T08:54:50;19.90;;;8.00;;
56255;SDS011;57229;51.432;-2.598;2024-01-30T08:57:15;14.07;;;7.22;;
56255;SDS011;57229;51.432;-2.598;2024-01-30T08:59:41;19.17;;;8.70;;
56255;SDS011;57229;51.432;-2.598;2024-01-30T09:02:09;18.85;;;8.35;;
56255;SDS011;57229;51.432;-2.598;2024-01-30T09:04:35;22.20;;;8.35;;
56255;SDS011;57229;51.432;-2.598;2024-01-30T09:07:00;18.52;;;8.07;;
56255;SDS011;57229;51.432;-2.598;2024-01-30T09:09:26;21.08;;;7.85;;
56255;SDS011;57229;51.432;-2.598;2024-01-30T09:11:51;19.90;;;7.72;;
56255;SDS011;57229;51.432;-2.598;2024-01-30T09:14:17;14.40;;;7.53;;
56255;SDS011;57229;51.432;-2.598;2024-01-30T09:16:43;18.05;;;8.18;;
56255;SDS011;57229;51.432;-2.598;2024-01-30T09:19:08;16.13;;;8.93;;
56255;SDS011;57229;51.432;-2.598;2024-01-30T09:21:34;15.73;;;8.80;;
56255;SDS011;57229;51.432;-2.598;2024-01-30T09:24:03;13.55;;;8.50;;
56255;SDS011;57229;51.432;-2.598;2024-01-30T09:26:29;24.05;;;9.30;;
56255;SDS011;57229;51.432;-2.598;2024-01-30T09:28:54;23.63;;;9.45;;
56255;SDS011;57229;51.432;-2.598;2024-01-30T09:31:20;18.40;;;8.88;;
56255;SDS011;57229;51.432;-2.598;2024-01-30T09:33:45;13.35;;;8.15;;
56255;SDS011;57229;51.432;-2.598;2024-01-30T09:36:13;19.85;;;8.38;;
56255;SDS011;57229;51.432;-2.598;2024-01-30T09:38:40;13.75;;;8.35;;
56255;SDS011;57229;51.432;-2.598;2024-01-30T09:41:07;15.15;;;8.48;;
56255;SDS011;57229;51.432;-2.598;2024-01-30T09:43:36;19.27;;;8.25;;
56255;SDS011;57229;51.432;-2.598;2024-01-30T09:46:04;18.17;;;7.60;;
56255;SDS011;57229;51.432;-2.598;2024-01-30T09:48:30;15.57;;;8.30;;
56255;SDS011;57229;51.432;-2.598;2024-01-30T09:50:58;28.00;;;9.05;;
56255;SDS011;57229;51.432;-2.598;2024-01-30T09:53:24;22.08;;;9.43;;
56255;SDS011;57229;51.432;-2.598;2024-01-30T09:55:50;17.10;;;8.65;;
56255;SDS011;57229;51.432;-2.598;2024-01-30T09:58:16;21.88;;;8.63;;
56255;SDS011;57229;51.432;-2.598;2024-01-30T10:00:42;17.85;;;8.48;;
56255;SDS011;57229;51.432;-2.598;2024-01-30T10:03:07;17.95;;;8.20;;
56255;SDS011;57229;51.432;-2.598;2024-01-30T10:05:34;15.00;;;8.75;;
56255;SDS011;57229;51.432;-2.598;2024-01-30T10:08:05;16.08;;;9.13;;
56255;SDS011;57229;51.432;-2.598;2024-01-30T10:10:31;16.35;;;9.05;;
56255;SDS011;57229;51.432;-2.598;2024-01-30T10:12:56;14.43;;;9.00;;
56255;SDS011;57229;51.432;-2.598;2024-01-30T10:15:22;13.90;;;8.73;;
56255;SDS011;57229;51.432;-2.598;2024-01-30T10:17:49;16.38;;;7.57;;
56255;SDS011;57229;51.432;-2.598;2024-01-30T10:20:14;16.55;;;8.00;;
56255;SDS011;57229;51.432;-2.598;2024-01-30T10:22:43;16.63;;;8.10;;
56255;SDS011;57229;51.432;-2.598;2024-01-30T10:25:10;14.85;;;6.97;;
56255;SDS011;57229;51.432;-2.598;2024-01-30T10:27:36;12.27;;;7.05;;
56255;SDS011;57229;51.432;-2.598;2024-01-30T10:30:04;12.82;;;7.72;;
56255;SDS011;57229;51.432;-2.598;2024-01-30T10:32:30;16.70;;;7.50;;
56255;SDS011;57229;51.432;-2.598;2024-01-30T10:34:56;14.50;;;7.72;;
56255;SDS011;57229;51.432;-2.598;2024-01-30T10:37:21;12.95;;;7.00;;
56255;SDS011;57229;51.432;-2.598;2024-01-30T10:39:50;15.98;;;7.53;;
56255;SDS011;57229;51.432;-2.598;2024-01-30T10:42:20;13.88;;;8.00;;
56255;SDS011;57229;51.432;-2.598;2024-01-30T10:47:28;18.75;;;7.53;;
56255;SDS011;57229;51.432;-2.598;2024-01-30T10:49:55;11.75;;;6.85;;
56255;SDS011;57229;51.432;-2.598;2024-01-30T10:52:22;16.77;;;8.18;;
56255;SDS011;57229;51.432;-2.598;2024-01-30T10:54:54;17.67;;;8.25;;
56255;SDS011;57229;51.432;-2.598;2024-01-30T10:57:21;15.15;;;7.57;;
56255;SDS011;57229;51.432;-2.598;2024-01-30T10:59:49;12.55;;;7.72;;
56255;SDS011;57229;51.432;-2.598;2024-01-30T11:02:16;12.90;;;7.45;;
56255;SDS011;57229;51.432;-2.598;2024-01-30T11:04:42;23.42;;;9.70;;
56255;SDS011;57229;51.432;-2.598;2024-01-30T11:07:15;19.08;;;9.65;;
56255;SDS011;57229;51.432;-2.598;2024-01-30T11:09:48;11.63;;;7.15;;
56255;SDS011;57229;51.432;-2.598;2024-01-30T11:12:15;11.68;;;7.18;;
56255;SDS011;57229;51.432;-2.598;2024-01-30T11:14:40;15.07;;;6.85;;
56255;SDS011;57229;51.432;-2.598;2024-01-30T11:17:06;8.57;;;6.38;;
56255;SDS011;57229;51.432;-2.598;2024-01-30T11:19:32;14.18;;;7.60;;
56255;SDS011;57229;51.432;-2.598;2024-01-30T11:21:58;13.10;;;7.03;;
56255;SDS011;57229;51.432;-2.598;2024-01-30T11:24:25;16.83;;;6.88;;
56255;SDS011;57229;51.432;-2.598;2024-01-30T11:26:57;17.10;;;7.65;;
56255;SDS011;57229;51.432;-2.598;2024-01-30T11:29:27;13.02;;;6.53;;
56255;SDS011;57229;51.432;-2.598;2024-01-30T11:31:56;12.27;;;5.72;;
56255;SDS011;57229;51.432;-2.598;2024-01-30T11:34:22;13.00;;;5.75;;
56255;SDS011;57229;51.432;-2.598;2024-01-30T11:36:51;9.05;;;6.35;;
56255;SDS011;57229;51.432;-2.598;2024-01-30T11:39:20;10.55;;;6.20;;
56255;SDS011;57229;51.432;-2.598;2024-01-30T11:41:47;12.10;;;6.68;;
56255;SDS011;57229;51.432;-2.598;2024-01-30T11:44:15;7.50;;;5.47;;
56255;SDS011;57229;51.432;-2.598;2024-01-30T11:46:41;11.52;;;5.57;;
56255;SDS011;57229;51.432;-2.598;2024-01-30T11:49:07;9.32;;;4.90;;
56255;SDS011;57229;51.432;-2.598;2024-01-30T11:51:32;11.13;;;6.03;;
56255;SDS011;57229;51.432;-2.598;2024-01-30T11:53:58;10.07;;;4.90;;
56255;SDS011;57229;51.432;-2.598;2024-01-30T11:56:24;11.77;;;5.88;;
56255;SDS011;57229;51.432;-2.598;2024-01-30T11:58:50;6.93;;;5.78;;
56255;SDS011;57229;51.432;-2.598;2024-01-30T12:01:17;11.30;;;6.20;;
56255;SDS011;57229;51.432;-2.598;2024-01-30T12:03:43;14.55;;;6.60;;
56255;SDS011;57229;51.432;-2.598;2024-01-30T12:06:15;14.35;;;6.28;;
56255;SDS011;57229;51.432;-2.598;2024-01-30T12:08:41;12.57;;;6.22;;
56255;SDS011;57229;51.432;-2.598;2024-01-30T12:11:07;14.90;;;7.30;;
56255;SDS011;57229;51.432;-2.598;2024-01-30T12:13:33;18.70;;;8.50;;
56255;SDS011;57229;51.432;-2.598;2024-01-30T12:16:02;10.32;;;7.25;;
56255;SDS011;57229;51.432;-2.598;2024-01-30T12:18:28;10.15;;;6.47;;
56255;SDS011;57229;51.432;-2.598;2024-01-30T12:21:00;9.77;;;5.97;;
56255;SDS011;57229;51.432;-2.598;2024-01-30T12:23:28;14.95;;;6.05;;
56255;SDS011;57229;51.432;-2.598;2024-01-30T12:25:54;7.30;;;6.10;;
56255;SDS011;57229;51.432;-2.598;2024-01-30T12:28:20;9.23;;;6.07;;
56255;SDS011;57229;51.432;-2.598;2024-01-30T12:30:46;10.82;;;5.82;;
56255;SDS011;57229;51.432;-2.598;2024-01-30T12:33:17;6.60;;;5.38;;
56255;SDS011;57229;51.432;-2.598;2024-01-30T12:35:47;8.45;;;5.70;;
56255;SDS011;57229;51.432;-2.598;2024-01-30T12:38:13;8.50;;;5.78;;
56255;SDS011;57229;51.432;-2.598;2024-01-30T12:40:39;9.75;;;6.00;;
56255;SDS011;57229;51.432;-2.598;2024-01-30T12:43:05;9.95;;;5.60;;
56255;SDS011;57229;51.432;-2.598;2024-01-30T12:45:31;11.95;;;5.90;;
56255;SDS011;57229;51.432;-2.598;2024-01-30T12:47:56;9.13;;;5.70;;
56255;SDS011;57229;51.432;-2.598;2024-01-30T12:50:23;19.48;;;5.95;;
56255;SDS011;57229;51.432;-2.598;2024-01-30T12:52:49;7.18;;;5.50;;
56255;SDS011;57229;51.432;-2.598;2024-01-30T12:55:14;8.75;;;6.13;;
56255;SDS011;57229;51.432;-2.598;2024-01-30T12:57:40;9.75;;;5.88;;
56255;SDS011;57229;51.432;-2.598;2024-01-30T13:00:07;8.90;;;5.32;;
56255;SDS011;57229;51.432;-2.598;2024-01-30T13:02:35;7.57;;;5.30;;
56255;SDS011;57229;51.432;-2.598;2024-01-30T13:05:05;10.18;;;5.40;;
56255;SDS011;57229;51.432;-2.598;2024-01-30T13:07:31;6.90;;;6.03;;
56255;SDS011;57229;51.432;-2.598;2024-01-30T13:09:56;8.43;;;5.95;;
56255;SDS011;57229;51.432;-2.598;2024-01-30T13:12:28;7.68;;;5.70;;
56255;SDS011;57229;51.432;-2.598;2024-01-30T13:14:54;6.00;;;5.32;;
56255;SDS011;57229;51.432;-2.598;2024-01-30T13:17:19;8.15;;;5.50;;
56255;SDS011;57229;51.432;-2.598;2024-01-30T13:19:45;7.03;;;5.55;;
56255;SDS011;57229;51.432;-2.598;2024-01-30T13:22:11;5.72;;;5.20;;
56255;SDS011;57229;51.432;-2.598;2024-01-30T13:24:36;8.15;;;5.47;;
56255;SDS011;57229;51.432;-2.598;2024-01-30T13:27:02;6.57;;;4.93;;
56255;SDS011;57229;51.432;-2.598;2024-01-30T13:29:30;5.25;;;4.93;;
56255;SDS011;57229;51.432;-2.598;2024-01-30T13:31:56;7.88;;;4.95;;
56255;SDS011;57229;51.432;-2.598;2024-01-30T13:34:21;5.18;;;4.70;;
56255;SDS011;57229;51.432;-2.598;2024-01-30T13:36:47;6.68;;;4.95;;
56255;SDS011;57229;51.432;-2.598;2024-01-30T13:39:14;5.10;;;4.60;;
56255;SDS011;57229;51.432;-2.598;2024-01-30T13:41:41;5.10;;;4.70;;
56255;SDS011;57229;51.432;-2.598;2024-01-30T13:44:07;6.93;;;6.20;;
56255;SDS011;57229;51.432;-2.598;2024-01-30T13:46:33;13.65;;;6.13;;
56255;SDS011;57229;51.432;-2.598;2024-01-30T13:48:59;16.77;;;7.55;;
56255;SDS011;57229;51.432;-2.598;2024-01-30T13:51:25;14.77;;;6.97;;
56255;SDS011;57229;51.432;-2.598;2024-01-30T13:53:50;9.82;;;7.35;;
56255;SDS011;57229;51.432;-2.598;2024-01-30T13:56:16;18.60;;;7.57;;
56255;SDS011;57229;51.432;-2.598;2024-01-30T13:58:42;12.50;;;6.95;;
56255;SDS011;57229;51.432;-2.598;2024-01-30T14:01:07;14.30;;;6.97;;
56255;SDS011;57229;51.432;-2.598;2024-01-30T14:03:34;21.20;;;8.25;;
56255;SDS011;57229;51.432;-2.598;2024-01-30T14:06:00;13.85;;;7.88;;
56255;SDS011;57229;51.432;-2.598;2024-01-30T14:08:26;11.45;;;7.20;;
56255;SDS011;57229;51.432;-2.598;2024-01-30T14:10:53;11.38;;;6.95;;
56255;SDS011;57229;51.432;-2.598;2024-01-30T14:13:20;8.18;;;7.07;;
56255;SDS011;57229;51.432;-2.598;2024-01-30T14:15:47;17.15;;;7.32;;
56255;SDS011;57229;51.432;-2.598;2024-01-30T14:18:13;11.50;;;6.80;;
56255;SDS011;57229;51.432;-2.598;2024-01-30T14:20:39;10.07;;;6.18;;
56255;SDS011;57229;51.432;-2.598;2024-01-30T14:23:04;13.60;;;6.35;;